sensor_id;sensor_type;location;lat;lon;timestamp;P1;durP1;ratioP1;P2;durP2;ratioP2
27889;SDS011;15238;49.082;9.102;2023-07-29T00:01:35;6.65;;;4.45;;
27889;SDS011;15238;49.082;9.102;2023-07-29T00:03:36;4.93;;;3.97;;
27889;SDS011;15238;49.082;9.102;2023-07-29T00:05:36;6.15;;;4.15;;
27889;SDS011;15238;49.082;9.102;2023-07-29T00:07:37;6.35;;;3.83;;
27889;SDS011;15238;49.082;9.102;2023-07-29T00:09:38;5.93;;;3.50;;
27889;SDS011;15238;49.082;9.102;2023-07-29T00:11:38;7.18;;;3.90;;
27889;SDS011;15238;49.082;9.102;2023-07-29T00:13:39;5.82;;;3.85;;
27889;SDS011;15238;49.082;9.102;2023-07-29T00:15:39;8.32;;;3.97;;
27889;SDS011;15238;49.082;9.102;2023-07-29T00:17:40;6.63;;;4.40;;
27889;SDS011;15238;49.082;9.102;2023-07-29T00:19:41;8.93;;;4.65;;
27889;SDS011;15238;49.082;9.102;2023-07-29T00:21:41;5.25;;;3.53;;
27889;SDS011;15238;49.082;9.102;2023-07-29T00:23:43;8.18;;;3.95;;
27889;SDS011;15238;49.082;9.102;2023-07-29T00:25:43;6.35;;;4.10;;
27889;SDS011;15238;49.082;9.102;2023-07-29T00:27:44;6.13;;;4.10;;
27889;SDS011;15238;49.082;9.102;2023-07-29T00:29:44;5.75;;;3.80;;
27889;SDS011;15238;49.082;9.102;2023-07-29T00:31:45;7.25;;;3.53;;
27889;SDS011;15238;49.082;9.102;2023-07-29T00:33:45;5.22;;;3.80;;
27889;SDS011;15238;49.082;9.102;2023-07-29T00:35:46;4.93;;;3.22;;
27889;SDS011;15238;49.082;9.102;2023-07-29T00:37:46;5.47;;;3.50;;
27889;SDS011;15238;49.082;9.102;2023-07-29T00:39:47;4.57;;;3.20;;
27889;SDS011;15238;49.082;9.102;2023-07-29T00:41:47;4.22;;;2.83;;
27889;SDS011;15238;49.082;9.102;2023-07-29T00:43:48;4.90;;;2.80;;
27889;SDS011;15238;49.082;9.102;2023-07-29T00:45:48;7.65;;;3.05;;
27889;SDS011;15238;49.082;9.102;2023-07-29T00:47:49;7.10;;;3.00;;
27889;SDS011;15238;49.082;9.102;2023-07-29T00:49:50;7.63;;;2.80;;
27889;SDS011;15238;49.082;9.102;2023-07-29T00:51:51;4.88;;;2.95;;
27889;SDS011;15238;49.082;9.102;2023-07-29T00:53:52;2.80;;;2.60;;
27889;SDS011;15238;49.082;9.102;2023-07-29T00:55:52;4.07;;;2.45;;
27889;SDS011;15238;49.082;9.102;2023-07-29T00:57:53;5.63;;;2.80;;
27889;SDS011;15238;49.082;9.102;2023-07-29T00:59:54;11.23;;;2.97;;
27889;SDS011;15238;49.082;9.102;2023-07-29T01:01:56;4.63;;;2.65;;
27889;SDS011;15238;49.082;9.102;2023-07-29T01:03:56;4.57;;;2.72;;
27889;SDS011;15238;49.082;9.102;2023-07-29T01:08:25;5.25;;;2.75;;
27889;SDS011;15238;49.082;9.102;2023-07-29T01:16:01;3.92;;;2.45;;
27889;SDS011;15238;49.082;9.102;2023-07-29T01:18:08;3.13;;;2.13;;
27889;SDS011;15238;49.082;9.102;2023-07-29T01:20:16;4.72;;;2.08;;
27889;SDS011;15238;49.082;9.102;2023-07-29T01:22:20;8.75;;;2.35;;
27889;SDS011;15238;49.082;9.102;2023-07-29T01:24:22;3.75;;;2.30;;
27889;SDS011;15238;49.082;9.102;2023-07-29T01:26:22;3.47;;;2.28;;
27889;SDS011;15238;49.082;9.102;2023-07-29T01:28:23;2.63;;;2.08;;
27889;SDS011;15238;49.082;9.102;2023-07-29T01:30:28;4.13;;;2.30;;
27889;SDS011;15238;49.082;9.102;2023-07-29T01:34:39;3.38;;;2.03;;
27889;SDS011;15238;49.082;9.102;2023-07-29T01:38:47;3.80;;;2.20;;
27889;SDS011;15238;49.082;9.102;2023-07-29T01:40:49;3.17;;;2.47;;
27889;SDS011;15238;49.082;9.102;2023-07-29T01:42:51;6.28;;;2.65;;
27889;SDS011;15238;49.082;9.102;2023-07-29T01:44:51;5.95;;;2.53;;
27889;SDS011;15238;49.082;9.102;2023-07-29T01:46:52;3.80;;;2.72;;
27889;SDS011;15238;49.082;9.102;2023-07-29T01:48:54;4.38;;;2.60;;
27889;SDS011;15238;49.082;9.102;2023-07-29T01:50:55;9.00;;;2.72;;
27889;SDS011;15238;49.082;9.102;2023-07-29T01:52:56;3.38;;;2.80;;
27889;SDS011;15238;49.082;9.102;2023-07-29T01:54:56;5.40;;;2.80;;
27889;SDS011;15238;49.082;9.102;2023-07-29T01:56:57;3.22;;;2.30;;
27889;SDS011;15238;49.082;9.102;2023-07-29T01:58:57;8.48;;;2.58;;
27889;SDS011;15238;49.082;9.102;2023-07-29T02:00:58;9.45;;;2.75;;
27889;SDS011;15238;49.082;9.102;2023-07-29T02:02:58;5.85;;;2.50;;
27889;SDS011;15238;49.082;9.102;2023-07-29T02:04:59;5.82;;;2.53;;
27889;SDS011;15238;49.082;9.102;2023-07-29T02:06:59;4.28;;;2.20;;
27889;SDS011;15238;49.082;9.102;2023-07-29T02:09:00;4.93;;;2.35;;
27889;SDS011;15238;49.082;9.102;2023-07-29T02:11:00;3.15;;;2.28;;
27889;SDS011;15238;49.082;9.102;2023-07-29T02:13:01;4.65;;;2.92;;
27889;SDS011;15238;49.082;9.102;2023-07-29T02:15:03;3.33;;;2.00;;
27889;SDS011;15238;49.082;9.102;2023-07-29T02:17:04;5.13;;;1.77;;
27889;SDS011;15238;49.082;9.102;2023-07-29T02:19:04;4.07;;;2.30;;
27889;SDS011;15238;49.082;9.102;2023-07-29T02:21:05;2.92;;;2.17;;
27889;SDS011;15238;49.082;9.102;2023-07-29T02:23:05;2.83;;;1.98;;
27889;SDS011;15238;49.082;9.102;2023-07-29T02:25:06;4.03;;;2.38;;
27889;SDS011;15238;49.082;9.102;2023-07-29T02:27:07;3.10;;;1.83;;
27889;SDS011;15238;49.082;9.102;2023-07-29T02:29:08;4.57;;;1.85;;
27889;SDS011;15238;49.082;9.102;2023-07-29T02:31:29;3.85;;;2.50;;
27889;SDS011;15238;49.082;9.102;2023-07-29T02:33:29;4.45;;;2.10;;
27889;SDS011;15238;49.082;9.102;2023-07-29T02:35:29;2.65;;;2.08;;
27889;SDS011;15238;49.082;9.102;2023-07-29T02:37:30;6.13;;;2.47;;
27889;SDS011;15238;49.082;9.102;2023-07-29T02:39:31;2.50;;;1.85;;
27889;SDS011;15238;49.082;9.102;2023-07-29T02:41:31;4.05;;;2.28;;
27889;SDS011;15238;49.082;9.102;2023-07-29T02:43:32;4.03;;;2.20;;
27889;SDS011;15238;49.082;9.102;2023-07-29T02:45:32;5.70;;;2.30;;
27889;SDS011;15238;49.082;9.102;2023-07-29T02:47:33;3.33;;;2.10;;
27889;SDS011;15238;49.082;9.102;2023-07-29T02:49:33;4.45;;;1.95;;
27889;SDS011;15238;49.082;9.102;2023-07-29T02:51:34;2.00;;;1.80;;
27889;SDS011;15238;49.082;9.102;2023-07-29T02:53:34;2.63;;;1.88;;
27889;SDS011;15238;49.082;9.102;2023-07-29T02:55:39;4.00;;;1.52;;
27889;SDS011;15238;49.082;9.102;2023-07-29T02:57:40;5.10;;;1.92;;
27889;SDS011;15238;49.082;9.102;2023-07-29T02:59:41;9.52;;;1.80;;
27889;SDS011;15238;49.082;9.102;2023-07-29T03:01:42;2.60;;;1.58;;
27889;SDS011;15238;49.082;9.102;2023-07-29T03:03:42;4.10;;;2.08;;
27889;SDS011;15238;49.082;9.102;2023-07-29T03:05:43;3.65;;;1.70;;
27889;SDS011;15238;49.082;9.102;2023-07-29T03:07:43;2.78;;;1.85;;
27889;SDS011;15238;49.082;9.102;2023-07-29T03:09:45;5.20;;;1.90;;
27889;SDS011;15238;49.082;9.102;2023-07-29T03:11:45;1.50;;;1.40;;
27889;SDS011;15238;49.082;9.102;2023-07-29T03:13:46;4.30;;;1.63;;
27889;SDS011;15238;49.082;9.102;2023-07-29T03:15:46;6.97;;;2.20;;
27889;SDS011;15238;49.082;9.102;2023-07-29T03:17:47;2.78;;;1.45;;
27889;SDS011;15238;49.082;9.102;2023-07-29T03:19:47;5.30;;;1.55;;
27889;SDS011;15238;49.082;9.102;2023-07-29T03:21:49;1.98;;;1.60;;
27889;SDS011;15238;49.082;9.102;2023-07-29T03:23:49;5.72;;;1.80;;
27889;SDS011;15238;49.082;9.102;2023-07-29T03:25:50;3.80;;;1.60;;
27889;SDS011;15238;49.082;9.102;2023-07-29T03:27:56;2.08;;;1.63;;
27889;SDS011;15238;49.082;9.102;2023-07-29T03:29:57;2.67;;;1.70;;
27889;SDS011;15238;49.082;9.102;2023-07-29T03:31:57;4.15;;;1.50;;
27889;SDS011;15238;49.082;9.102;2023-07-29T03:33:58;2.22;;;1.52;;
27889;SDS011;15238;49.082;9.102;2023-07-29T03:35:58;1.83;;;1.50;;
27889;SDS011;15238;49.082;9.102;2023-07-29T03:37:59;3.53;;;1.88;;
27889;SDS011;15238;49.082;9.102;2023-07-29T03:39:59;2.35;;;1.52;;
27889;SDS011;15238;49.082;9.102;2023-07-29T03:42:00;5.43;;;1.48;;
27889;SDS011;15238;49.082;9.102;2023-07-29T03:44:00;1.70;;;1.30;;
27889;SDS011;15238;49.082;9.102;2023-07-29T03:46:01;4.70;;;1.20;;
27889;SDS011;15238;49.082;9.102;2023-07-29T03:48:02;2.88;;;1.35;;
27889;SDS011;15238;49.082;9.102;2023-07-29T03:50:03;2.05;;;1.50;;
27889;SDS011;15238;49.082;9.102;2023-07-29T03:52:04;3.55;;;1.42;;
27889;SDS011;15238;49.082;9.102;2023-07-29T03:54:05;3.08;;;1.50;;
27889;SDS011;15238;49.082;9.102;2023-07-29T03:56:06;1.77;;;1.13;;
27889;SDS011;15238;49.082;9.102;2023-07-29T03:58:07;4.55;;;1.40;;
27889;SDS011;15238;49.082;9.102;2023-07-29T04:00:08;1.63;;;1.23;;
27889;SDS011;15238;49.082;9.102;2023-07-29T04:02:09;4.55;;;1.25;;
27889;SDS011;15238;49.082;9.102;2023-07-29T04:04:09;3.10;;;1.05;;
27889;SDS011;15238;49.082;9.102;2023-07-29T04:06:10;3.38;;;1.50;;
27889;SDS011;15238;49.082;9.102;2023-07-29T04:08:10;2.22;;;1.25;;
27889;SDS011;15238;49.082;9.102;2023-07-29T04:10:11;3.10;;;1.15;;
27889;SDS011;15238;49.082;9.102;2023-07-29T04:12:11;6.47;;;1.27;;
27889;SDS011;15238;49.082;9.102;2023-07-29T04:14:12;4.57;;;1.60;;
27889;SDS011;15238;49.082;9.102;2023-07-29T04:16:12;2.55;;;1.60;;
27889;SDS011;15238;49.082;9.102;2023-07-29T04:18:13;4.75;;;1.67;;
27889;SDS011;15238;49.082;9.102;2023-07-29T04:20:14;2.35;;;1.60;;
27889;SDS011;15238;49.082;9.102;2023-07-29T04:22:15;3.33;;;1.73;;
27889;SDS011;15238;49.082;9.102;2023-07-29T04:24:16;2.90;;;1.83;;
27889;SDS011;15238;49.082;9.102;2023-07-29T04:26:16;3.58;;;1.55;;
27889;SDS011;15238;49.082;9.102;2023-07-29T04:28:17;2.60;;;1.67;;
27889;SDS011;15238;49.082;9.102;2023-07-29T04:30:17;2.70;;;1.60;;
27889;SDS011;15238;49.082;9.102;2023-07-29T04:32:18;4.15;;;1.50;;
27889;SDS011;15238;49.082;9.102;2023-07-29T04:34:18;3.22;;;1.63;;
27889;SDS011;15238;49.082;9.102;2023-07-29T04:36:19;2.38;;;1.65;;
27889;SDS011;15238;49.082;9.102;2023-07-29T04:38:20;2.88;;;1.42;;
27889;SDS011;15238;49.082;9.102;2023-07-29T04:40:20;4.28;;;1.90;;
27889;SDS011;15238;49.082;9.102;2023-07-29T04:42:22;5.80;;;2.08;;
27889;SDS011;15238;49.082;9.102;2023-07-29T04:44:23;8.30;;;2.05;;
27889;SDS011;15238;49.082;9.102;2023-07-29T04:46:23;3.90;;;2.15;;
27889;SDS011;15238;49.082;9.102;2023-07-29T04:48:24;4.72;;;1.90;;
27889;SDS011;15238;49.082;9.102;2023-07-29T04:50:24;7.05;;;2.20;;
27889;SDS011;15238;49.082;9.102;2023-07-29T04:52:25;5.45;;;2.20;;
27889;SDS011;15238;49.082;9.102;2023-07-29T04:54:25;3.25;;;1.90;;
27889;SDS011;15238;49.082;9.102;2023-07-29T04:56:26;4.03;;;1.70;;
27889;SDS011;15238;49.082;9.102;2023-07-29T04:58:26;2.72;;;1.50;;
27889;SDS011;15238;49.082;9.102;2023-07-29T05:00:28;2.90;;;1.42;;
27889;SDS011;15238;49.082;9.102;2023-07-29T05:02:29;7.28;;;2.75;;
27889;SDS011;15238;49.082;9.102;2023-07-29T05:04:30;10.20;;;1.70;;
27889;SDS011;15238;49.082;9.102;2023-07-29T05:06:30;2.70;;;1.73;;
27889;SDS011;15238;49.082;9.102;2023-07-29T05:08:31;2.35;;;1.58;;
27889;SDS011;15238;49.082;9.102;2023-07-29T05:10:31;5.15;;;1.50;;
27889;SDS011;15238;49.082;9.102;2023-07-29T05:12:32;2.90;;;1.48;;
27889;SDS011;15238;49.082;9.102;2023-07-29T05:14:32;4.32;;;1.40;;
27889;SDS011;15238;49.082;9.102;2023-07-29T05:16:33;2.22;;;1.27;;
27889;SDS011;15238;49.082;9.102;2023-07-29T05:18:33;3.38;;;1.30;;
27889;SDS011;15238;49.082;9.102;2023-07-29T05:20:34;5.20;;;1.52;;
27889;SDS011;15238;49.082;9.102;2023-07-29T05:22:34;2.00;;;1.17;;
27889;SDS011;15238;49.082;9.102;2023-07-29T05:24:35;4.80;;;1.30;;
27889;SDS011;15238;49.082;9.102;2023-07-29T05:26:35;4.32;;;1.40;;
27889;SDS011;15238;49.082;9.102;2023-07-29T05:28:36;6.00;;;1.40;;
27889;SDS011;15238;49.082;9.102;2023-07-29T05:30:37;4.97;;;1.33;;
27889;SDS011;15238;49.082;9.102;2023-07-29T05:32:38;3.35;;;1.70;;
27889;SDS011;15238;49.082;9.102;2023-07-29T05:34:39;3.70;;;1.50;;
27889;SDS011;15238;49.082;9.102;2023-07-29T05:36:39;6.15;;;1.50;;
27889;SDS011;15238;49.082;9.102;2023-07-29T05:38:40;2.00;;;1.40;;
27889;SDS011;15238;49.082;9.102;2023-07-29T05:40:41;2.90;;;1.52;;
27889;SDS011;15238;49.082;9.102;2023-07-29T05:42:41;3.13;;;1.60;;
27889;SDS011;15238;49.082;9.102;2023-07-29T05:44:42;5.63;;;1.65;;
27889;SDS011;15238;49.082;9.102;2023-07-29T05:46:43;6.65;;;2.53;;
27889;SDS011;15238;49.082;9.102;2023-07-29T05:48:43;2.28;;;1.23;;
27889;SDS011;15238;49.082;9.102;2023-07-29T05:50:44;2.55;;;1.33;;
27889;SDS011;15238;49.082;9.102;2023-07-29T05:52:44;3.30;;;1.38;;
27889;SDS011;15238;49.082;9.102;2023-07-29T05:54:45;3.85;;;1.30;;
27889;SDS011;15238;49.082;9.102;2023-07-29T05:56:45;5.22;;;1.60;;
27889;SDS011;15238;49.082;9.102;2023-07-29T05:58:46;1.83;;;1.10;;
27889;SDS011;15238;49.082;9.102;2023-07-29T06:00:46;2.00;;;0.95;;
27889;SDS011;15238;49.082;9.102;2023-07-29T06:02:47;2.50;;;1.17;;
27889;SDS011;15238;49.082;9.102;2023-07-29T06:04:47;3.88;;;1.10;;
27889;SDS011;15238;49.082;9.102;2023-07-29T06:06:48;2.53;;;0.95;;
27889;SDS011;15238;49.082;9.102;2023-07-29T06:08:49;3.38;;;1.50;;
27889;SDS011;15238;49.082;9.102;2023-07-29T06:10:50;1.70;;;1.02;;
27889;SDS011;15238;49.082;9.102;2023-07-29T06:12:50;2.47;;;1.20;;
27889;SDS011;15238;49.082;9.102;2023-07-29T06:14:51;1.20;;;1.10;;
27889;SDS011;15238;49.082;9.102;2023-07-29T06:16:52;1.85;;;1.30;;
27889;SDS011;15238;49.082;9.102;2023-07-29T06:18:53;1.30;;;1.10;;
27889;SDS011;15238;49.082;9.102;2023-07-29T06:20:54;1.30;;;0.93;;
27889;SDS011;15238;49.082;9.102;2023-07-29T06:22:54;3.63;;;1.20;;
27889;SDS011;15238;49.082;9.102;2023-07-29T06:24:55;1.52;;;1.15;;
27889;SDS011;15238;49.082;9.102;2023-07-29T06:26:55;1.90;;;1.10;;
27889;SDS011;15238;49.082;9.102;2023-07-29T06:28:56;3.20;;;1.52;;
27889;SDS011;15238;49.082;9.102;2023-07-29T06:30:56;5.60;;;1.50;;
27889;SDS011;15238;49.082;9.102;2023-07-29T06:32:57;4.53;;;1.48;;
27889;SDS011;15238;49.082;9.102;2023-07-29T06:34:57;3.42;;;1.70;;
27889;SDS011;15238;49.082;9.102;2023-07-29T06:36:58;3.00;;;1.30;;
27889;SDS011;15238;49.082;9.102;2023-07-29T06:38:58;1.73;;;1.42;;
27889;SDS011;15238;49.082;9.102;2023-07-29T06:40:59;1.65;;;1.10;;
27889;SDS011;15238;49.082;9.102;2023-07-29T06:43:00;2.67;;;1.20;;
27889;SDS011;15238;49.082;9.102;2023-07-29T06:45:00;2.33;;;1.42;;
27889;SDS011;15238;49.082;9.102;2023-07-29T06:47:01;1.75;;;1.30;;
27889;SDS011;15238;49.082;9.102;2023-07-29T06:49:01;2.83;;;1.33;;
27889;SDS011;15238;49.082;9.102;2023-07-29T06:51:02;2.05;;;1.20;;
27889;SDS011;15238;49.082;9.102;2023-07-29T06:53:03;2.17;;;0.95;;
27889;SDS011;15238;49.082;9.102;2023-07-29T06:55:03;1.95;;;1.30;;
27889;SDS011;15238;49.082;9.102;2023-07-29T06:57:04;2.28;;;1.48;;
27889;SDS011;15238;49.082;9.102;2023-07-29T06:59:05;2.25;;;1.27;;
27889;SDS011;15238;49.082;9.102;2023-07-29T07:01:06;2.75;;;1.30;;
27889;SDS011;15238;49.082;9.102;2023-07-29T07:03:06;2.25;;;1.27;;
27889;SDS011;15238;49.082;9.102;2023-07-29T07:05:07;1.88;;;1.33;;
27889;SDS011;15238;49.082;9.102;2023-07-29T07:07:07;3.17;;;1.45;;
27889;SDS011;15238;49.082;9.102;2023-07-29T07:09:08;2.17;;;1.23;;
27889;SDS011;15238;49.082;9.102;2023-07-29T07:11:08;4.22;;;1.20;;
27889;SDS011;15238;49.082;9.102;2023-07-29T07:13:09;4.15;;;1.40;;
27889;SDS011;15238;49.082;9.102;2023-07-29T07:15:09;2.13;;;1.20;;
27889;SDS011;15238;49.082;9.102;2023-07-29T07:17:10;2.78;;;1.58;;
27889;SDS011;15238;49.082;9.102;2023-07-29T07:19:11;2.15;;;1.52;;
27889;SDS011;15238;49.082;9.102;2023-07-29T07:21:11;3.95;;;1.25;;
27889;SDS011;15238;49.082;9.102;2023-07-29T07:23:12;2.42;;;1.27;;
27889;SDS011;15238;49.082;9.102;2023-07-29T07:25:13;2.25;;;1.40;;
27889;SDS011;15238;49.082;9.102;2023-07-29T07:27:13;1.27;;;1.05;;
27889;SDS011;15238;49.082;9.102;2023-07-29T08:35:21;0.75;;;0.55;;
27889;SDS011;15238;49.082;9.102;2023-07-29T08:37:22;0.70;;;0.45;;
27889;SDS011;15238;49.082;9.102;2023-07-29T08:41:36;0.57;;;0.50;;
27889;SDS011;15238;49.082;9.102;2023-07-29T08:43:48;0.82;;;0.55;;
27889;SDS011;15238;49.082;9.102;2023-07-29T08:45:52;1.02;;;0.50;;
27889;SDS011;15238;49.082;9.102;2023-07-29T08:47:53;0.50;;;0.47;;
27889;SDS011;15238;49.082;9.102;2023-07-29T08:49:57;0.90;;;0.70;;
27889;SDS011;15238;49.082;9.102;2023-07-29T08:52:01;0.38;;;0.38;;
27889;SDS011;15238;49.082;9.102;2023-07-29T08:54:02;1.23;;;0.70;;
27889;SDS011;15238;49.082;9.102;2023-07-29T08:56:03;2.10;;;0.63;;
27889;SDS011;15238;49.082;9.102;2023-07-29T08:58:05;1.65;;;0.65;;
27889;SDS011;15238;49.082;9.102;2023-07-29T09:00:06;1.25;;;0.50;;
27889;SDS011;15238;49.082;9.102;2023-07-29T09:02:07;1.45;;;0.50;;
27889;SDS011;15238;49.082;9.102;2023-07-29T09:04:08;0.77;;;0.65;;
27889;SDS011;15238;49.082;9.102;2023-07-29T09:06:09;1.05;;;0.75;;
27889;SDS011;15238;49.082;9.102;2023-07-29T09:08:10;0.93;;;0.68;;
27889;SDS011;15238;49.082;9.102;2023-07-29T09:10:12;1.10;;;0.32;;
27889;SDS011;15238;49.082;9.102;2023-07-29T09:12:13;3.40;;;0.57;;
27889;SDS011;15238;49.082;9.102;2023-07-29T09:14:14;0.80;;;0.60;;
27889;SDS011;15238;49.082;9.102;2023-07-29T09:16:14;0.60;;;0.50;;
27889;SDS011;15238;49.082;9.102;2023-07-29T09:18:16;0.68;;;0.57;;
27889;SDS011;15238;49.082;9.102;2023-07-29T09:20:26;0.40;;;0.40;;
27889;SDS011;15238;49.082;9.102;2023-07-29T09:22:27;0.70;;;0.57;;
27889;SDS011;15238;49.082;9.102;2023-07-29T09:24:28;0.80;;;0.73;;
27889;SDS011;15238;49.082;9.102;2023-07-29T09:26:32;1.33;;;0.77;;
27889;SDS011;15238;49.082;9.102;2023-07-29T09:28:33;0.85;;;0.50;;
27889;SDS011;15238;49.082;9.102;2023-07-29T09:30:35;1.23;;;0.60;;
27889;SDS011;15238;49.082;9.102;2023-07-29T09:32:37;1.90;;;0.50;;
27889;SDS011;15238;49.082;9.102;2023-07-29T09:34:41;2.20;;;0.75;;
27889;SDS011;15238;49.082;9.102;2023-07-29T09:36:42;0.93;;;0.82;;
27889;SDS011;15238;49.082;9.102;2023-07-29T09:38:43;1.05;;;0.68;;
27889;SDS011;15238;49.082;9.102;2023-07-29T09:40:45;0.77;;;0.60;;
27889;SDS011;15238;49.082;9.102;2023-07-29T09:42:49;2.20;;;0.65;;
27889;SDS011;15238;49.082;9.102;2023-07-29T09:44:50;1.75;;;0.73;;
27889;SDS011;15238;49.082;9.102;2023-07-29T09:46:51;0.80;;;0.63;;
27889;SDS011;15238;49.082;9.102;2023-07-29T09:48:53;2.50;;;0.70;;
27889;SDS011;15238;49.082;9.102;2023-07-29T09:50:56;2.10;;;0.73;;
27889;SDS011;15238;49.082;9.102;2023-07-29T09:52:57;1.02;;;0.60;;
27889;SDS011;15238;49.082;9.102;2023-07-29T09:55:02;1.13;;;0.70;;
27889;SDS011;15238;49.082;9.102;2023-07-29T09:57:03;3.08;;;0.85;;
27889;SDS011;15238;49.082;9.102;2023-07-29T09:59:07;1.20;;;0.68;;
27889;SDS011;15238;49.082;9.102;2023-07-29T10:01:08;1.98;;;0.90;;
27889;SDS011;15238;49.082;9.102;2023-07-29T10:03:09;1.23;;;0.80;;
27889;SDS011;15238;49.082;9.102;2023-07-29T10:05:09;0.90;;;0.68;;
27889;SDS011;15238;49.082;9.102;2023-07-29T10:07:10;1.45;;;0.80;;
27889;SDS011;15238;49.082;9.102;2023-07-29T10:09:12;1.80;;;0.70;;
27889;SDS011;15238;49.082;9.102;2023-07-29T10:11:13;0.88;;;0.70;;
27889;SDS011;15238;49.082;9.102;2023-07-29T10:13:13;0.95;;;0.57;;
27889;SDS011;15238;49.082;9.102;2023-07-29T10:15:15;1.13;;;0.50;;
27889;SDS011;15238;49.082;9.102;2023-07-29T10:17:16;1.48;;;0.65;;
27889;SDS011;15238;49.082;9.102;2023-07-29T10:19:16;0.60;;;0.52;;
27889;SDS011;15238;49.082;9.102;2023-07-29T10:21:18;1.38;;;0.57;;
27889;SDS011;15238;49.082;9.102;2023-07-29T10:23:22;0.98;;;0.70;;
27889;SDS011;15238;49.082;9.102;2023-07-29T10:25:25;0.55;;;0.50;;
27889;SDS011;15238;49.082;9.102;2023-07-29T10:27:43;0.40;;;0.40;;
27889;SDS011;15238;49.082;9.102;2023-07-29T10:30:08;0.88;;;0.50;;
27889;SDS011;15238;49.082;9.102;2023-07-29T10:32:13;0.52;;;0.50;;
27889;SDS011;15238;49.082;9.102;2023-07-29T10:34:14;0.70;;;0.60;;
27889;SDS011;15238;49.082;9.102;2023-07-29T10:36:15;0.70;;;0.30;;
27889;SDS011;15238;49.082;9.102;2023-07-29T10:38:16;0.77;;;0.75;;
27889;SDS011;15238;49.082;9.102;2023-07-29T10:40:18;1.25;;;0.50;;
27889;SDS011;15238;49.082;9.102;2023-07-29T10:42:19;0.60;;;0.50;;
27889;SDS011;15238;49.082;9.102;2023-07-29T10:46:39;0.80;;;0.60;;
27889;SDS011;15238;49.082;9.102;2023-07-29T10:48:40;0.73;;;0.50;;
27889;SDS011;15238;49.082;9.102;2023-07-29T10:50:41;1.13;;;0.50;;
27889;SDS011;15238;49.082;9.102;2023-07-29T10:52:42;1.23;;;0.40;;
27889;SDS011;15238;49.082;9.102;2023-07-29T10:54:46;1.60;;;0.73;;
27889;SDS011;15238;49.082;9.102;2023-07-29T10:56:48;0.50;;;0.50;;
27889;SDS011;15238;49.082;9.102;2023-07-29T10:58:49;0.75;;;0.60;;
27889;SDS011;15238;49.082;9.102;2023-07-29T11:00:49;0.50;;;0.43;;
27889;SDS011;15238;49.082;9.102;2023-07-29T11:02:58;1.65;;;0.50;;
27889;SDS011;15238;49.082;9.102;2023-07-29T11:05:08;1.30;;;0.57;;
27889;SDS011;15238;49.082;9.102;2023-07-29T11:11:43;2.33;;;0.50;;
27889;SDS011;15238;49.082;9.102;2023-07-29T11:13:43;0.98;;;0.50;;
27889;SDS011;15238;49.082;9.102;2023-07-29T11:15:44;0.60;;;0.47;;
27889;SDS011;15238;49.082;9.102;2023-07-29T11:19:51;3.60;;;0.50;;
27889;SDS011;15238;49.082;9.102;2023-07-29T11:21:53;0.80;;;0.30;;
27889;SDS011;15238;49.082;9.102;2023-07-29T11:23:54;5.07;;;0.40;;
27889;SDS011;15238;49.082;9.102;2023-07-29T11:25:55;0.93;;;0.50;;
27889;SDS011;15238;49.082;9.102;2023-07-29T11:27:56;5.82;;;0.65;;
27889;SDS011;15238;49.082;9.102;2023-07-29T11:30:03;0.60;;;0.50;;
27889;SDS011;15238;49.082;9.102;2023-07-29T11:32:11;0.40;;;0.40;;
27889;SDS011;15238;49.082;9.102;2023-07-29T11:34:11;0.47;;;0.40;;
27889;SDS011;15238;49.082;9.102;2023-07-29T11:36:17;0.43;;;0.30;;
27889;SDS011;15238;49.082;9.102;2023-07-29T11:38:19;0.80;;;0.40;;
27889;SDS011;15238;49.082;9.102;2023-07-29T11:40:21;0.52;;;0.40;;
27889;SDS011;15238;49.082;9.102;2023-07-29T11:42:23;0.88;;;0.60;;
27889;SDS011;15238;49.082;9.102;2023-07-29T11:44:27;0.30;;;0.30;;
27889;SDS011;15238;49.082;9.102;2023-07-29T11:46:28;0.40;;;0.30;;
27889;SDS011;15238;49.082;9.102;2023-07-29T11:48:32;0.40;;;0.40;;
27889;SDS011;15238;49.082;9.102;2023-07-29T11:50:33;0.70;;;0.55;;
27889;SDS011;15238;49.082;9.102;2023-07-29T11:52:35;0.80;;;0.60;;
27889;SDS011;15238;49.082;9.102;2023-07-29T11:54:38;0.80;;;0.60;;
27889;SDS011;15238;49.082;9.102;2023-07-29T11:56:39;0.60;;;0.50;;
27889;SDS011;15238;49.082;9.102;2023-07-29T11:58:39;1.08;;;0.40;;
27889;SDS011;15238;49.082;9.102;2023-07-29T12:00:40;3.35;;;0.70;;
27889;SDS011;15238;49.082;9.102;2023-07-29T12:02:42;1.02;;;0.50;;
27889;SDS011;15238;49.082;9.102;2023-07-29T12:04:46;0.90;;;0.50;;
27889;SDS011;15238;49.082;9.102;2023-07-29T12:06:47;1.30;;;0.50;;
27889;SDS011;15238;49.082;9.102;2023-07-29T12:08:48;0.47;;;0.47;;
27889;SDS011;15238;49.082;9.102;2023-07-29T12:10:49;1.45;;;0.63;;
27889;SDS011;15238;49.082;9.102;2023-07-29T12:12:49;0.85;;;0.50;;
27889;SDS011;15238;49.082;9.102;2023-07-29T12:14:51;1.00;;;0.80;;
27889;SDS011;15238;49.082;9.102;2023-07-29T12:16:54;0.77;;;0.70;;
27889;SDS011;15238;49.082;9.102;2023-07-29T12:18:54;2.78;;;0.60;;
27889;SDS011;15238;49.082;9.102;2023-07-29T12:20:55;1.25;;;0.65;;
27889;SDS011;15238;49.082;9.102;2023-07-29T12:22:56;0.60;;;0.45;;
27889;SDS011;15238;49.082;9.102;2023-07-29T12:24:58;1.38;;;0.80;;
27889;SDS011;15238;49.082;9.102;2023-07-29T12:26:59;1.00;;;0.50;;
27889;SDS011;15238;49.082;9.102;2023-07-29T12:29:10;1.08;;;0.60;;
27889;SDS011;15238;49.082;9.102;2023-07-29T12:31:14;0.98;;;0.50;;
27889;SDS011;15238;49.082;9.102;2023-07-29T12:33:31;0.50;;;0.32;;
27889;SDS011;15238;49.082;9.102;2023-07-29T12:35:36;0.40;;;0.40;;
27889;SDS011;15238;49.082;9.102;2023-07-29T12:37:37;1.40;;;0.70;;
27889;SDS011;15238;49.082;9.102;2023-07-29T12:39:41;0.63;;;0.40;;
27889;SDS011;15238;49.082;9.102;2023-07-29T12:41:42;0.77;;;0.60;;
27889;SDS011;15238;49.082;9.102;2023-07-29T12:43:43;0.73;;;0.70;;
27889;SDS011;15238;49.082;9.102;2023-07-29T12:45:43;0.88;;;0.60;;
27889;SDS011;15238;49.082;9.102;2023-07-29T12:47:44;0.63;;;0.50;;
27889;SDS011;15238;49.082;9.102;2023-07-29T12:49:45;0.90;;;0.52;;
27889;SDS011;15238;49.082;9.102;2023-07-29T12:51:45;1.08;;;0.50;;
27889;SDS011;15238;49.082;9.102;2023-07-29T12:53:46;1.13;;;0.90;;
27889;SDS011;15238;49.082;9.102;2023-07-29T12:55:46;0.68;;;0.68;;
27889;SDS011;15238;49.082;9.102;2023-07-29T12:57:47;0.70;;;0.70;;
27889;SDS011;15238;49.082;9.102;2023-07-29T12:59:47;0.70;;;0.70;;
27889;SDS011;15238;49.082;9.102;2023-07-29T13:01:48;3.00;;;0.70;;
27889;SDS011;15238;49.082;9.102;2023-07-29T13:03:48;1.88;;;0.80;;
27889;SDS011;15238;49.082;9.102;2023-07-29T13:05:49;1.60;;;0.90;;
27889;SDS011;15238;49.082;9.102;2023-07-29T13:07:49;1.00;;;0.80;;
27889;SDS011;15238;49.082;9.102;2023-07-29T13:09:50;1.45;;;0.63;;
27889;SDS011;15238;49.082;9.102;2023-07-29T13:11:50;2.83;;;0.90;;
27889;SDS011;15238;49.082;9.102;2023-07-29T13:13:51;0.80;;;0.60;;
27889;SDS011;15238;49.082;9.102;2023-07-29T13:15:51;0.77;;;0.68;;
27889;SDS011;15238;49.082;9.102;2023-07-29T13:17:52;0.65;;;0.60;;
27889;SDS011;15238;49.082;9.102;2023-07-29T13:19:53;1.70;;;0.95;;
27889;SDS011;15238;49.082;9.102;2023-07-29T13:21:53;0.88;;;0.60;;
27889;SDS011;15238;49.082;9.102;2023-07-29T13:23:54;1.48;;;0.65;;
27889;SDS011;15238;49.082;9.102;2023-07-29T13:25:55;0.73;;;0.70;;
27889;SDS011;15238;49.082;9.102;2023-07-29T13:27:56;1.00;;;0.57;;
27889;SDS011;15238;49.082;9.102;2023-07-29T13:29:56;1.48;;;0.70;;
27889;SDS011;15238;49.082;9.102;2023-07-29T13:31:57;1.20;;;0.77;;
27889;SDS011;15238;49.082;9.102;2023-07-29T13:33:57;1.02;;;0.73;;
27889;SDS011;15238;49.082;9.102;2023-07-29T13:35:58;0.80;;;0.52;;
27889;SDS011;15238;49.082;9.102;2023-07-29T13:37:59;1.05;;;0.77;;
27889;SDS011;15238;49.082;9.102;2023-07-29T13:40:02;1.10;;;0.70;;
27889;SDS011;15238;49.082;9.102;2023-07-29T13:42:03;2.25;;;0.98;;